الصفحة الرئيسية
METAR-TAF:

METAR-TAF

مطار :

مطار فينيكس سكاي هاربر الدولي

فينيكس, أريزونا, الولايات المتحدة

دائرة عرض: 33-26-03N, خط طول: 112-03-04W, ارتفاع: 345 متر

مراقبة الطقس الحالي

تاريخ ووقت الإصدار 46 دقيقة قبل الساعة 21:51UTC
ريح 6 عقدة من الغرب/الجنوب الغربي
درجة الحرارة 30°درجة مئوية
الرطوبة 9%
ضغط 1010 hPa
الرؤية: 16.1 كم
سماء صافية

METAR: KPHX 202151Z 24006KT 10SM CLR 30/M06 A2982 RMK AO2 SLP085 T03001061

زمن: 15:37 (22:37 UTC)

توقعات

تاريخ ووقت الإصدار 1ساعة و 29 دقيقة قبل الساعة 21:08UTC
التوقعات صالحة من20 الساعة 21 UTC إلى 21 الساعة 24 UTC
ريح 7 عقدة من الغرب
الرؤية: 10 كم
سماء صافية
مؤقت
من 20 الساعة 22 UTC إلى 21 الساعة 01 UTC
ريح 8 عقدة من الغرب تتزايد حتى 17 عقدة
الرؤية: 10 كم
سماء صافية
من 21 الساعة 0800 UTC
ريح 6 عقدة من الشرق
الرؤية: 10 كم
غيوم قليلة على ارتفاع 25000 قدم
من 21 الساعة 2100 UTC
ريح 7 عقدة من الغرب
الرؤية: 10 كم
سماء صافية

TAF: KPHX 202108Z 2021/2124 26007KT P6SM SKC TEMPO 2022/2101 28008G17KT P6SM SKC FM210800 08006KT P6SM FEW250 FM212100 27007KT P6SM SKC

أرصاد الطقس والتوقعات من أكثر من 4000 مطار (تقارير الطقس للمطار METAR والتنبؤ بالطقس بالمطارTAF).

المحطات المتاحة هي النقط الصفراء والحمراء على الخريطة.

حرك المؤشر فوق النقطة لمعرفة اسم المحطة.

ثم انقر لمعرفة أرصاد وتوقعات الطقس.

لتغيير الخارطة: اضغط على الأزرار الخضراء مع رمز الصليب الأسود للتكبير. على الزر الأخضر مع شرطة للتصغير، أو على الأسهم الخضراء للخرائط المجاورة.


METAR-TAF: